Time;durP1;ratioP1;P1;durP2;ratioP2;P2;SDS_P1;SDS_P2;PMS_P1;PMS_P2;Temp;Humidity;BMP_temperature;BMP_pressure;BME280_temperature;BME280_humidity;BME280_pressure;Samples;Min_cycle;Max_cycle;Signal;HPM_P1;HPM_P2
2023/06/24 00:01:38;;;;;;;12.95;9.30;;;17.00;99.90;;;;;;5013050;28;20420;-64
2023/06/24 00:04:04;;;;;;;16.23;8.75;;;17.00;99.90;;;;;;5013433;28;20104;-64
2023/06/24 00:06:29;;;;;;;11.95;9.10;;;17.00;99.90;;;;;;5008387;28;21261;-64
2023/06/24 00:09:00;;;;;;;13.35;8.15;;;16.90;99.90;;;;;;4995954;28;20056;-65
2023/06/24 00:11:27;;;;;;;11.05;8.95;;;16.90;99.90;;;;;;5012820;28;20042;-63
2023/06/24 00:13:53;;;;;;;13.35;8.75;;;16.80;99.90;;;;;;5008692;28;20456;-66
2023/06/24 00:16:27;;;;;;;12.60;8.68;;;16.70;99.90;;;;;;4985825;28;20481;-67
2023/06/24 00:19:00;;;;;;;13.45;9.80;;;16.60;99.90;;;;;;5012793;28;20030;-67
2023/06/24 00:21:30;;;;;;;20.98;10.55;;;16.50;99.90;;;;;;5013217;28;20045;-66
2023/06/24 00:24:01;;;;;;;13.88;10.02;;;16.50;99.90;;;;;;4992588;28;20038;-65
2023/06/24 00:26:27;;;;;;;16.40;10.73;;;16.40;99.90;;;;;;5005579;28;20042;-67
2023/06/24 00:28:52;;;;;;;13.50;9.23;;;16.40;99.90;;;;;;5012808;28;20107;-66
2023/06/24 00:31:20;;;;;;;11.52;8.60;;;16.40;99.90;;;;;;5007073;28;20046;-66
2023/06/24 00:33:46;;;;;;;10.82;8.20;;;16.40;99.90;;;;;;5012593;28;20038;-65
2023/06/24 00:36:11;;;;;;;13.10;7.55;;;16.40;99.90;;;;;;5012411;28;20034;-66
2023/06/24 00:38:40;;;;;;;11.95;8.55;;;16.20;99.90;;;;;;5011805;28;20091;-66
2023/06/24 00:41:07;;;;;;;9.35;7.55;;;16.10;99.90;;;;;;5001100;28;20120;-67
2023/06/24 00:43:33;;;;;;;10.90;7.93;;;16.00;99.90;;;;;;5014322;28;20053;-66
2023/06/24 00:45:59;;;;;;;11.80;9.27;;;15.90;99.90;;;;;;5012649;28;20073;-66
2023/06/24 00:48:24;;;;;;;12.32;8.10;;;16.00;99.90;;;;;;5009323;28;20057;-66
2023/06/24 00:50:50;;;;;;;17.60;9.98;;;16.00;99.90;;;;;;5012404;28;20053;-67
2023/06/24 00:53:17;;;;;;;13.63;10.45;;;16.10;99.90;;;;;;5011979;28;20635;-66
2023/06/24 00:55:45;;;;;;;14.82;10.75;;;16.20;99.90;;;;;;5016409;28;20503;-67
2023/06/24 00:58:15;;;;;;;14.60;10.38;;;16.20;99.90;;;;;;4998584;28;20569;-66
2023/06/24 01:00:42;;;;;;;16.30;10.45;;;16.20;99.90;;;;;;5012378;28;20041;-67
2023/06/24 01:03:12;;;;;;;10.70;8.55;;;16.10;99.90;;;;;;5004788;28;20066;-67
2023/06/24 01:05:37;;;;;;;10.85;7.88;;;16.10;99.90;;;;;;5003296;28;20034;-65
2023/06/24 01:08:03;;;;;;;17.85;10.55;;;15.90;99.90;;;;;;5012565;28;20038;-66
2023/06/24 01:10:29;;;;;;;12.35;9.00;;;15.90;99.90;;;;;;5012320;28;20077;-66
2023/06/24 01:12:54;;;;;;;12.30;9.00;;;15.90;99.90;;;;;;5012477;28;20038;-65
2023/06/24 01:15:21;;;;;;;11.25;9.35;;;15.80;99.90;;;;;;5010756;28;20154;-67
2023/06/24 01:18:19;;;;;;;15.30;9.00;;;15.80;99.90;;;;;;5011404;28;20052;-64
2023/06/24 01:20:56;;;;;;;14.95;10.20;;;15.80;99.90;;;;;;5008662;28;20135;-66
2023/06/24 01:23:56;;;;;;;17.20;9.85;;;15.80;99.90;;;;;;5001632;28;20508;-67
2023/06/24 01:26:42;;;;;;;14.80;10.15;;;15.70;99.90;;;;;;5011580;28;20041;-65
2023/06/24 01:29:30;;;;;;;14.65;10.57;;;15.80;99.90;;;;;;5009229;28;20042;-67
2023/06/24 01:31:59;;;;;;;14.25;10.38;;;15.70;99.90;;;;;;5014366;28;20060;-66
2023/06/24 01:34:45;;;;;;;15.02;11.02;;;15.60;99.90;;;;;;5011870;28;20044;-66
2023/06/24 01:37:13;;;;;;;14.85;10.75;;;15.60;99.90;;;;;;5009657;28;20132;-65
2023/06/24 01:39:52;;;;;;;14.68;10.65;;;15.60;99.90;;;;;;5004528;28;20034;-67
2023/06/24 01:42:21;;;;;;;14.32;10.45;;;15.60;99.90;;;;;;5011585;28;20052;-67
2023/06/24 01:44:48;;;;;;;12.45;9.25;;;15.60;99.90;;;;;;5011639;28;20100;-66
2023/06/24 01:47:26;;;;;;;15.45;10.10;;;15.50;99.90;;;;;;5008114;28;20132;-63
2023/06/24 01:49:54;;;;;;;16.35;9.93;;;15.50;99.90;;;;;;4999338;28;20121;-67
2023/06/24 01:52:23;;;;;;;13.40;9.00;;;15.40;99.90;;;;;;5011592;28;20046;-67
2023/06/24 01:54:51;;;;;;;12.65;9.77;;;15.40;99.90;;;;;;5003970;28;20035;-67
2023/06/24 01:57:19;;;;;;;12.95;9.45;;;15.20;99.90;;;;;;4993265;28;20113;-63
2023/06/24 01:59:46;;;;;;;14.30;9.85;;;15.20;99.90;;;;;;5011428;28;20034;-66
2023/06/24 02:02:13;;;;;;;15.75;10.23;;;15.20;99.90;;;;;;5008591;28;20066;-67
2023/06/24 02:04:39;;;;;;;14.73;9.68;;;15.30;99.90;;;;;;5015201;28;20746;-66
2023/06/24 02:07:06;;;;;;;14.13;9.32;;;15.20;99.90;;;;;;5011281;28;20034;-66
2023/06/24 02:09:33;;;;;;;13.23;9.90;;;15.20;99.90;;;;;;5011537;28;20065;-66
2023/06/24 02:12:01;;;;;;;14.20;9.40;;;15.20;99.90;;;;;;5010279;28;20531;-67
2023/06/24 02:14:28;;;;;;;10.60;7.65;;;15.20;99.90;;;;;;5014960;28;20049;-64
2023/06/24 02:16:57;;;;;;;10.73;7.28;;;15.10;99.90;;;;;;5011409;28;20080;-63
2023/06/24 02:19:29;;;;;;;11.00;7.88;;;15.00;99.90;;;;;;5013187;28;20103;-63
2023/06/24 02:21:59;;;;;;;10.80;8.43;;;15.00;99.90;;;;;;5002475;28;20495;-63
2023/06/24 02:24:26;;;;;;;10.43;8.20;;;14.90;99.90;;;;;;5011070;28;20096;-63
2023/06/24 02:26:54;;;;;;;12.98;8.85;;;14.80;99.90;;;;;;5011475;28;20519;-64
2023/06/24 02:29:21;;;;;;;13.38;8.68;;;14.80;99.90;;;;;;4994064;28;20046;-64
2023/06/24 02:31:47;;;;;;;12.57;8.73;;;14.90;99.90;;;;;;5005726;28;20081;-63
2023/06/24 02:34:12;;;;;;;12.13;8.00;;;14.80;99.90;;;;;;5011214;28;20038;-63
2023/06/24 02:36:39;;;;;;;12.70;9.38;;;14.80;99.90;;;;;;5007591;28;20488;-63
2023/06/24 02:39:04;;;;;;;9.73;7.75;;;14.80;99.90;;;;;;5015810;28;20045;-63
2023/06/24 02:41:30;;;;;;;9.82;7.20;;;14.70;99.90;;;;;;5010736;28;20042;-64
2023/06/24 02:43:55;;;;;;;10.40;8.05;;;14.70;99.90;;;;;;4992286;28;20064;-63
2023/06/24 02:46:22;;;;;;;11.45;7.85;;;14.70;99.90;;;;;;5011241;28;20045;-64
2023/06/24 02:48:49;;;;;;;12.18;9.48;;;14.70;99.90;;;;;;5010884;28;20034;-63
2023/06/24 02:51:15;;;;;;;12.82;8.57;;;14.70;99.90;;;;;;5009884;28;20556;-63
2023/06/24 02:53:42;;;;;;;11.57;7.45;;;14.70;99.90;;;;;;5008523;28;20037;-63
2023/06/24 02:56:09;;;;;;;11.75;7.80;;;14.70;99.90;;;;;;5008601;28;20077;-64
2023/06/24 02:58:38;;;;;;;10.77;8.25;;;14.70;99.90;;;;;;5010847;28;20041;-64
2023/06/24 03:01:03;;;;;;;10.40;8.10;;;14.70;99.90;;;;;;5007986;28;20038;-64
2023/06/24 03:03:30;;;;;;;11.40;8.63;;;14.60;99.90;;;;;;4987439;28;20061;-63
2023/06/24 03:05:58;;;;;;;11.88;7.88;;;14.50;99.90;;;;;;5014247;28;20059;-63
2023/06/24 03:08:25;;;;;;;13.52;8.30;;;14.50;99.90;;;;;;5012560;28;21123;-63
2023/06/24 03:10:56;;;;;;;11.50;8.18;;;14.50;99.90;;;;;;5030059;28;20037;-63
2023/06/24 03:13:22;;;;;;;12.75;8.70;;;14.50;99.90;;;;;;5014684;28;20084;-66
2023/06/24 03:15:47;;;;;;;12.40;8.95;;;14.50;99.90;;;;;;5014505;28;20030;-66
2023/06/24 03:18:13;;;;;;;15.30;9.23;;;14.50;99.90;;;;;;5007179;28;20400;-66
2023/06/24 03:20:38;;;;;;;14.55;9.80;;;14.50;99.90;;;;;;5021004;28;20062;-66
2023/06/24 03:23:07;;;;;;;13.95;9.73;;;14.60;99.90;;;;;;4997031;28;20488;-66
2023/06/24 03:25:34;;;;;;;7.65;5.63;;;14.60;99.90;;;;;;5013914;28;20296;-66
2023/06/24 03:28:07;;;;;;;10.38;7.10;;;14.50;99.90;;;;;;5004889;28;20053;-65
2023/06/24 03:30:33;;;;;;;9.20;6.80;;;14.50;99.90;;;;;;5006171;28;20131;-67
2023/06/24 03:32:58;;;;;;;11.65;7.68;;;14.40;99.90;;;;;;5012769;28;20136;-67
2023/06/24 03:35:24;;;;;;;9.68;5.78;;;14.40;99.90;;;;;;5012825;28;20539;-66
2023/06/24 03:37:50;;;;;;;9.07;6.00;;;14.40;99.90;;;;;;5011610;28;20034;-66
2023/06/24 03:40:17;;;;;;;5.80;4.35;;;14.40;99.90;;;;;;5023107;28;20108;-66
2023/06/24 03:42:42;;;;;;;9.38;7.00;;;14.40;99.90;;;;;;5013403;28;20112;-66
2023/06/24 03:45:08;;;;;;;12.40;8.27;;;14.40;99.90;;;;;;5013750;28;20117;-66
2023/06/24 03:47:34;;;;;;;9.93;7.72;;;14.40;99.90;;;;;;5006545;28;20034;-66
2023/06/24 03:50:00;;;;;;;12.40;8.50;;;14.40;99.90;;;;;;5013270;28;20057;-66
2023/06/24 03:52:25;;;;;;;7.35;5.50;;;14.40;99.90;;;;;;5017555;28;20037;-65
2023/06/24 03:54:51;;;;;;;3.95;3.38;;;14.50;99.90;;;;;;5017420;28;20026;-66
2023/06/24 03:57:18;;;;;;;6.10;3.47;;;14.50;99.90;;;;;;5013297;28;20117;-65
2023/06/24 03:59:43;;;;;;;6.95;5.10;;;14.50;99.90;;;;;;5010023;28;20031;-66
2023/06/24 04:02:09;;;;;;;6.25;4.68;;;14.60;99.90;;;;;;5002828;28;20042;-66
2023/06/24 04:04:35;;;;;;;5.63;4.45;;;14.60;99.90;;;;;;5012828;28;20046;-65
2023/06/24 04:07:01;;;;;;;9.43;6.38;;;14.70;99.90;;;;;;5012645;28;20038;-66
2023/06/24 04:09:29;;;;;;;9.48;6.18;;;14.70;99.90;;;;;;5011825;28;20496;-66
2023/06/24 04:11:54;;;;;;;9.82;6.95;;;14.80;99.90;;;;;;5016678;28;20048;-63
2023/06/24 04:14:20;;;;;;;13.93;7.65;;;14.80;99.90;;;;;;5013283;28;20113;-64
2023/06/24 04:16:45;;;;;;;11.40;8.18;;;14.90;99.90;;;;;;5015230;28;20113;-63
2023/06/24 04:19:11;;;;;;;13.50;8.57;;;15.00;99.90;;;;;;5012443;28;20144;-64
2023/06/24 04:21:37;;;;;;;14.25;9.15;;;15.10;99.90;;;;;;5012819;28;20042;-63
2023/06/24 04:24:03;;;;;;;16.73;9.85;;;15.10;99.90;;;;;;5008531;28;21462;-65
2023/06/24 04:26:29;;;;;;;14.13;10.13;;;15.10;99.90;;;;;;5010686;28;20096;-65
2023/06/24 04:28:54;;;;;;;14.95;10.40;;;15.30;99.90;;;;;;5012312;28;20508;-63
2023/06/24 04:31:20;;;;;;;14.88;10.55;;;15.40;99.90;;;;;;5013023;28;20053;-64
2023/06/24 04:33:46;;;;;;;15.73;10.60;;;15.50;99.90;;;;;;5013514;28;20033;-63
2023/06/24 04:36:11;;;;;;;15.45;10.43;;;15.70;99.90;;;;;;5008888;28;20472;-64
2023/06/24 04:38:37;;;;;;;16.05;10.88;;;15.80;99.90;;;;;;5009117;28;20033;-63
2023/06/24 04:41:03;;;;;;;15.32;10.88;;;15.90;99.90;;;;;;5011596;28;20044;-63
2023/06/24 04:43:29;;;;;;;17.15;12.02;;;16.00;99.90;;;;;;5008195;28;20034;-63
2023/06/24 04:45:55;;;;;;;21.02;13.38;;;16.20;99.90;;;;;;5012232;28;20088;-64
2023/06/24 04:48:23;;;;;;;19.38;12.65;;;16.20;99.90;;;;;;5009544;28;20057;-63
2023/06/24 04:50:49;;;;;;;18.05;11.88;;;16.30;99.90;;;;;;5016533;28;20037;-63
2023/06/24 04:53:15;;;;;;;19.10;12.77;;;16.30;99.90;;;;;;4997569;28;20038;-63
2023/06/24 04:55:40;;;;;;;18.67;12.38;;;16.40;99.90;;;;;;4997825;28;20042;-63
2023/06/24 04:58:06;;;;;;;17.15;12.23;;;16.50;99.90;;;;;;4987530;28;20025;-67
2023/06/24 05:00:32;;;;;;;19.25;12.05;;;16.60;99.90;;;;;;4984538;28;20654;-66
2023/06/24 05:02:58;;;;;;;21.90;12.82;;;16.70;99.90;;;;;;5001190;28;20072;-64
2023/06/24 05:05:23;;;;;;;22.30;13.27;;;16.80;99.90;;;;;;5001959;28;20875;-67
2023/06/24 05:07:49;;;;;;;21.00;13.30;;;16.90;99.90;;;;;;5003409;28;20030;-63
2023/06/24 05:10:15;;;;;;;21.73;13.95;;;17.00;99.90;;;;;;4998158;28;20061;-63
2023/06/24 05:12:41;;;;;;;20.70;14.02;;;17.00;99.90;;;;;;5013531;28;20037;-65
2023/06/24 05:15:07;;;;;;;22.23;14.50;;;17.00;99.90;;;;;;5000952;28;20041;-64
2023/06/24 05:17:33;;;;;;;21.50;13.88;;;17.00;99.90;;;;;;5010655;28;20905;-66
2023/06/24 05:19:58;;;;;;;18.98;14.00;;;17.10;99.90;;;;;;5010988;28;20045;-66
2023/06/24 05:22:24;;;;;;;22.30;13.68;;;17.20;99.90;;;;;;5018219;28;20053;-66
2023/06/24 05:24:50;;;;;;;20.30;14.48;;;17.20;99.90;;;;;;5017688;28;20400;-64
2023/06/24 05:27:17;;;;;;;22.90;15.07;;;17.30;99.90;;;;;;5010257;28;20165;-63
2023/06/24 05:29:43;;;;;;;18.80;13.95;;;17.40;99.90;;;;;;5007338;28;20041;-67
2023/06/24 05:32:08;;;;;;;18.52;13.80;;;17.50;99.90;;;;;;5006367;28;20369;-64
2023/06/24 05:34:34;;;;;;;19.98;14.63;;;17.60;99.90;;;;;;5014287;28;20036;-68
2023/06/24 05:37:00;;;;;;;22.38;14.50;;;17.70;99.90;;;;;;4988846;28;20052;-63
2023/06/24 05:39:26;;;;;;;22.20;14.52;;;17.70;99.90;;;;;;5009505;28;20060;-67
2023/06/24 05:41:52;;;;;;;22.40;14.68;;;17.90;99.90;;;;;;5007585;28;20412;-65
2023/06/24 05:44:18;;;;;;;21.23;14.88;;;17.90;99.90;;;;;;5014327;28;20783;-65
2023/06/24 05:46:45;;;;;;;23.27;15.55;;;18.00;99.90;;;;;;4995868;28;20439;-63
2023/06/24 05:49:10;;;;;;;20.63;14.55;;;18.10;99.90;;;;;;5008586;28;20038;-67
2023/06/24 05:51:36;;;;;;;23.30;16.02;;;18.20;99.90;;;;;;5011229;28;20037;-63
2023/06/24 05:54:03;;;;;;;25.17;15.40;;;18.30;99.90;;;;;;5019079;28;20091;-66
2023/06/24 05:56:29;;;;;;;23.38;16.20;;;18.40;99.90;;;;;;5020599;28;20042;-66
2023/06/24 05:58:54;;;;;;;24.88;16.33;;;18.50;99.90;;;;;;4994883;28;20042;-66
2023/06/24 06:01:20;;;;;;;23.02;16.35;;;18.70;99.90;;;;;;5014265;28;20052;-64
2023/06/24 06:03:46;;;;;;;24.15;15.02;;;18.80;99.90;;;;;;5005161;28;20038;-64
2023/06/24 06:06:11;;;;;;;22.75;15.95;;;18.90;99.90;;;;;;4981585;28;20045;-63
2023/06/24 06:08:37;;;;;;;21.92;15.57;;;19.00;99.90;;;;;;5001265;28;20125;-66
2023/06/24 06:11:03;;;;;;;23.58;15.52;;;19.10;99.90;;;;;;5006435;28;20120;-65
2023/06/24 06:13:29;;;;;;;22.95;15.80;;;19.20;99.90;;;;;;5015021;28;20057;-64
2023/06/24 06:15:55;;;;;;;21.33;15.20;;;19.30;99.90;;;;;;5009551;28;20041;-63
2023/06/24 06:18:21;;;;;;;19.50;14.57;;;19.40;99.90;;;;;;5018497;28;20399;-66
2023/06/24 06:20:46;;;;;;;19.50;14.32;;;19.40;99.90;;;;;;5016049;28;20041;-66
2023/06/24 06:23:12;;;;;;;20.55;14.15;;;19.50;99.90;;;;;;5010911;28;20826;-64
2023/06/24 06:25:38;;;;;;;22.17;14.55;;;19.60;99.90;;;;;;5018755;28;20048;-66
2023/06/24 06:28:04;;;;;;;23.27;14.25;;;19.70;99.90;;;;;;5021063;28;20051;-64
2023/06/24 06:30:30;;;;;;;21.08;14.07;;;19.80;99.90;;;;;;5012299;28;20045;-64
2023/06/24 06:32:56;;;;;;;21.70;14.13;;;19.80;99.90;;;;;;5006919;28;20037;-65
2023/06/24 06:35:21;;;;;;;17.20;12.75;;;20.00;99.90;;;;;;5007169;28;20037;-67
2023/06/24 06:37:52;;;;;;;22.98;13.82;;;20.00;99.90;;;;;;5002265;28;20506;-65
2023/06/24 06:40:21;;;;;;;20.57;13.27;;;20.10;99.90;;;;;;5002023;28;20049;-65
2023/06/24 06:42:47;;;;;;;17.25;12.73;;;20.10;99.90;;;;;;5004260;28;20374;-66
2023/06/24 06:45:13;;;;;;;15.98;12.65;;;20.20;99.90;;;;;;5012188;28;20504;-65
2023/06/24 06:47:38;;;;;;;15.52;12.70;;;20.30;99.90;;;;;;5013945;28;20065;-65
2023/06/24 06:50:04;;;;;;;17.63;12.35;;;20.40;99.90;;;;;;5015494;28;20038;-66
2023/06/24 06:52:30;;;;;;;17.13;12.35;;;20.50;99.90;;;;;;5013928;28;20045;-66
2023/06/24 06:54:56;;;;;;;16.40;12.25;;;20.60;99.90;;;;;;5018968;28;20029;-66
2023/06/24 06:57:22;;;;;;;16.67;11.90;;;20.70;99.90;;;;;;5016197;28;20083;-67
2023/06/24 06:59:50;;;;;;;14.77;11.77;;;20.80;99.90;;;;;;5005923;28;20452;-66
2023/06/24 07:02:16;;;;;;;14.18;10.65;;;20.90;99.90;;;;;;5007257;28;20042;-66
2023/06/24 07:04:42;;;;;;;18.58;10.45;;;21.10;99.90;;;;;;5005312;28;20042;-66
2023/06/24 07:07:08;;;;;;;17.15;10.40;;;21.10;99.90;;;;;;5014197;28;20049;-65
2023/06/24 07:09:34;;;;;;;14.52;11.23;;;21.30;99.90;;;;;;5014305;28;20038;-65
2023/06/24 07:11:59;;;;;;;15.75;10.77;;;21.40;99.90;;;;;;5007331;28;20034;-66
2023/06/24 07:14:25;;;;;;;20.67;10.73;;;21.50;99.90;;;;;;5008695;28;20444;-66
2023/06/24 07:16:51;;;;;;;15.15;10.30;;;21.60;99.90;;;;;;5013934;28;20121;-66
2023/06/24 07:19:16;;;;;;;16.33;10.43;;;21.70;99.90;;;;;;5014345;28;20084;-65
2023/06/24 07:21:42;;;;;;;13.40;10.35;;;21.80;99.90;;;;;;5010116;28;20076;-66
2023/06/24 07:24:08;;;;;;;16.98;9.70;;;21.90;99.90;;;;;;5006505;28;20400;-65
2023/06/24 07:26:33;;;;;;;16.67;9.85;;;22.00;99.90;;;;;;5013841;28;20041;-66
2023/06/24 07:28:59;;;;;;;13.80;9.90;;;22.10;99.90;;;;;;5005573;28;20034;-67
2023/06/24 07:31:25;;;;;;;11.68;9.57;;;22.20;99.90;;;;;;5005686;28;20037;-65
2023/06/24 07:33:51;;;;;;;13.25;9.75;;;22.20;99.90;;;;;;5026660;28;20771;-67
2023/06/24 07:36:16;;;;;;;14.95;9.95;;;22.30;99.90;;;;;;5010791;28;20029;-66
2023/06/24 07:38:42;;;;;;;14.15;9.43;;;22.30;99.90;;;;;;5009984;28;20061;-65
2023/06/24 07:41:08;;;;;;;13.38;10.00;;;22.40;99.90;;;;;;5004736;28;20044;-66
2023/06/24 07:43:33;;;;;;;13.23;9.98;;;22.50;99.90;;;;;;5017360;28;20030;-69
2023/06/24 07:45:59;;;;;;;14.48;9.52;;;22.60;99.90;;;;;;5012556;28;20033;-65
2023/06/24 07:48:25;;;;;;;15.55;10.40;;;22.60;99.90;;;;;;5031325;28;20492;-65
2023/06/24 07:50:50;;;;;;;17.08;10.52;;;22.70;99.90;;;;;;5027708;28;20481;-65
2023/06/24 07:53:16;;;;;;;18.40;11.18;;;22.80;99.90;;;;;;5012758;28;20065;-66
2023/06/24 07:55:42;;;;;;;18.25;10.38;;;22.90;99.90;;;;;;4982762;28;20033;-66
2023/06/24 07:58:07;;;;;;;15.50;10.57;;;22.90;99.90;;;;;;4998893;28;20504;-65
2023/06/24 08:00:33;;;;;;;15.68;11.10;;;23.00;99.90;;;;;;4993655;28;20045;-70
2023/06/24 08:02:59;;;;;;;15.68;11.20;;;23.20;99.90;;;;;;5003297;28;20033;-66
2023/06/24 08:05:25;;;;;;;15.57;11.02;;;23.30;99.90;;;;;;5002144;28;20040;-65
2023/06/24 08:07:51;;;;;;;16.67;11.40;;;23.40;99.90;;;;;;5002218;28;20037;-66
2023/06/24 08:10:18;;;;;;;15.27;10.90;;;23.40;99.90;;;;;;4982787;28;20208;-65
2023/06/24 08:12:43;;;;;;;14.40;10.63;;;23.40;99.90;;;;;;4979967;28;20035;-65
2023/06/24 08:15:09;;;;;;;17.17;11.20;;;23.50;99.90;;;;;;4994162;28;20041;-72
2023/06/24 08:17:35;;;;;;;15.13;11.60;;;23.60;99.90;;;;;;4992922;28;20045;-65
2023/06/24 08:20:04;;;;;;;30.33;11.45;;;23.70;99.90;;;;;;4997844;28;20026;-68
2023/06/24 08:22:30;;;;;;;17.30;12.30;;;23.80;99.90;;;;;;4995334;28;20096;-66
2023/06/24 08:24:56;;;;;;;14.95;11.43;;;23.70;99.90;;;;;;5004223;28;20034;-67
2023/06/24 08:27:22;;;;;;;15.23;12.02;;;23.80;99.90;;;;;;5010625;28;20377;-66
2023/06/24 08:29:48;;;;;;;16.13;11.88;;;23.90;99.90;;;;;;5013483;28;20037;-62
2023/06/24 08:32:13;;;;;;;21.35;12.65;;;23.90;99.90;;;;;;5019848;28;20049;-65
2023/06/24 08:34:39;;;;;;;21.20;12.90;;;23.90;99.90;;;;;;5000199;28;20100;-65
2023/06/24 08:37:05;;;;;;;19.08;12.25;;;23.90;99.90;;;;;;4995422;28;20507;-62
2023/06/24 08:39:30;;;;;;;18.98;12.10;;;23.90;99.90;;;;;;5001455;28;20041;-64
2023/06/24 08:41:56;;;;;;;18.77;13.05;;;23.90;99.90;;;;;;5001969;28;20045;-69
2023/06/24 08:44:22;;;;;;;19.73;11.75;;;23.90;99.90;;;;;;5016618;28;20041;-63
2023/06/24 08:46:48;;;;;;;14.45;10.27;;;24.00;99.90;;;;;;5018176;28;20547;-63
2023/06/24 08:49:22;;;;;;;16.70;10.73;;;24.10;99.90;;;;;;5011937;28;20118;-66
2023/06/24 08:52:13;;;;;;;14.80;11.30;;;24.30;99.90;;;;;;5000886;28;20052;-63
2023/06/24 08:54:41;;;;;;;18.08;10.35;;;24.30;99.90;;;;;;4978043;28;20045;-63
2023/06/24 08:57:08;;;;;;;13.90;9.85;;;24.40;99.90;;;;;;5004694;28;20052;-67
2023/06/24 08:59:34;;;;;;;16.08;11.13;;;24.40;99.90;;;;;;5001592;28;20038;-63
2023/06/24 09:02:00;;;;;;;16.83;10.35;;;24.50;99.90;;;;;;5005856;28;20488;-65
2023/06/24 09:04:26;;;;;;;14.00;9.77;;;24.50;99.60;;;;;;5006813;28;20100;-64
2023/06/24 09:06:52;;;;;;;14.32;10.00;;;24.50;99.70;;;;;;5011435;28;20496;-64
2023/06/24 09:09:19;;;;;;;15.68;10.70;;;24.70;99.70;;;;;;5009214;28;20038;-65
2023/06/24 09:11:52;;;;;;;13.43;9.80;;;24.70;99.40;;;;;;5007837;28;20034;-64
2023/06/24 09:14:18;;;;;;;15.15;10.98;;;24.60;98.70;;;;;;5006565;28;20030;-65
2023/06/24 09:16:54;;;;;;;15.48;10.82;;;24.50;99.00;;;;;;5018993;28;20476;-64
2023/06/24 09:19:21;;;;;;;13.65;9.88;;;24.50;99.00;;;;;;5004924;28;20382;-64
2023/06/24 09:21:47;;;;;;;13.20;8.55;;;24.60;99.40;;;;;;5002250;28;20416;-63
2023/06/24 09:24:12;;;;;;;10.32;7.40;;;24.60;98.70;;;;;;5004830;28;20052;-63
2023/06/24 09:26:38;;;;;;;11.80;6.43;;;24.80;98.60;;;;;;5007045;28;20042;-63
2023/06/24 09:29:04;;;;;;;8.38;6.20;;;24.80;97.50;;;;;;5010905;28;20050;-68
2023/06/24 09:31:29;;;;;;;13.32;9.57;;;24.80;97.50;;;;;;4975074;28;20125;-63
2023/06/24 09:33:58;;;;;;;15.35;9.95;;;25.00;97.90;;;;;;5013965;28;20036;-65
2023/06/24 09:36:24;;;;;;;15.18;10.43;;;25.00;98.20;;;;;;5031254;28;20454;-64
2023/06/24 09:38:49;;;;;;;14.40;9.85;;;25.10;98.30;;;;;;5017961;28;20034;-64
2023/06/24 09:41:15;;;;;;;14.30;9.95;;;25.20;98.10;;;;;;4997556;28;20044;-64
2023/06/24 09:43:43;;;;;;;11.82;8.40;;;25.20;98.00;;;;;;4993508;28;20049;-65
2023/06/24 09:46:09;;;;;;;11.48;6.57;;;25.10;97.50;;;;;;5008913;28;20108;-63
2023/06/24 09:48:35;;;;;;;10.15;5.80;;;25.20;97.20;;;;;;5019660;28;20117;-64
2023/06/24 09:51:03;;;;;;;8.27;6.20;;;25.20;95.80;;;;;;5011296;28;20041;-63
2023/06/24 09:53:34;;;;;;;9.43;7.03;;;25.30;96.00;;;;;;5007727;28;20038;-63
2023/06/24 09:56:03;;;;;;;10.93;6.70;;;25.30;95.20;;;;;;5011343;28;20080;-63
2023/06/24 09:58:32;;;;;;;11.35;6.95;;;25.30;95.70;;;;;;5002135;28;20042;-66
2023/06/24 10:01:03;;;;;;;10.77;8.05;;;25.50;95.30;;;;;;5021622;28;20479;-65
2023/06/24 10:03:31;;;;;;;12.82;8.30;;;25.50;96.00;;;;;;5010848;28;20760;-64
2023/06/24 10:05:57;;;;;;;10.57;7.60;;;25.60;95.80;;;;;;5007715;28;20088;-63
2023/06/24 10:08:23;;;;;;;7.95;6.15;;;25.70;96.20;;;;;;5010299;28;20034;-64
2023/06/24 10:10:49;;;;;;;9.05;6.43;;;25.60;94.70;;;;;;5005239;28;20091;-63
2023/06/24 10:13:15;;;;;;;8.10;5.57;;;25.60;94.40;;;;;;5007176;28;20030;-63
2023/06/24 10:15:41;;;;;;;6.97;4.25;;;25.60;94.30;;;;;;5008344;28;20387;-64
2023/06/24 10:18:34;;;;;;;11.32;4.65;;;25.70;93.50;;;;;;5020135;28;20115;-64
2023/06/24 10:20:59;;;;;;;5.22;4.20;;;25.80;91.60;;;;;;5014755;28;20160;-63
2023/06/24 10:23:40;;;;;;;5.82;4.68;;;25.90;92.70;;;;;;5013992;28;20045;-64
2023/06/24 10:26:10;;;;;;;7.20;4.53;;;26.00;91.10;;;;;;5007882;28;20096;-65
2023/06/24 10:29:05;;;;;;;7.18;4.95;;;26.10;92.50;;;;;;5011281;28;20114;-66
2023/06/24 10:31:40;;;;;;;7.50;4.70;;;26.10;91.30;;;;;;5005354;28;20100;-62
2023/06/24 10:34:34;;;;;;;8.80;5.25;;;26.10;90.90;;;;;;4975109;28;20501;-67
2023/06/24 10:37:08;;;;;;;10.43;5.18;;;26.10;91.80;;;;;;4995702;28;20497;-64
2023/06/24 10:39:37;;;;;;;8.90;5.35;;;26.20;92.30;;;;;;5000096;28;20030;-63
2023/06/24 10:42:27;;;;;;;10.20;5.43;;;26.20;91.20;;;;;;5010239;28;20049;-63
2023/06/24 10:45:13;;;;;;;9.40;5.88;;;26.30;90.40;;;;;;5013758;28;20045;-64
2023/06/24 10:47:52;;;;;;;8.20;6.22;;;26.30;91.80;;;;;;4984510;28;20037;-65
2023/06/24 10:50:23;;;;;;;8.82;6.45;;;26.40;91.60;;;;;;5009761;28;20026;-64
2023/06/24 10:52:55;;;;;;;9.07;5.88;;;26.40;91.20;;;;;;4994834;28;20042;-64
2023/06/24 10:55:22;;;;;;;10.40;6.07;;;26.50;91.70;;;;;;5011788;28;20049;-64
2023/06/24 10:57:48;;;;;;;9.05;5.93;;;26.60;91.80;;;;;;5013031;28;20034;-64
2023/06/24 11:00:15;;;;;;;8.55;5.90;;;26.60;91.60;;;;;;5012586;28;20042;-64
2023/06/24 11:02:41;;;;;;;7.63;5.65;;;26.60;91.40;;;;;;5009290;28;20500;-63
2023/06/24 11:05:07;;;;;;;10.88;6.30;;;26.60;91.20;;;;;;5006993;28;20033;-65
2023/06/24 11:07:34;;;;;;;7.88;5.45;;;26.70;91.40;;;;;;5015556;28;20046;-65
2023/06/24 11:10:07;;;;;;;7.38;5.32;;;26.80;91.80;;;;;;5015949;28;20048;-64
2023/06/24 11:12:35;;;;;;;8.50;5.35;;;26.90;90.80;;;;;;5007294;28;20341;-65
2023/06/24 11:15:05;;;;;;;9.05;5.80;;;26.90;90.60;;;;;;5003782;28;20036;-65
2023/06/24 11:17:32;;;;;;;;;;;27.00;90.90;;;;;;5013507;28;20124;-66
2023/06/24 11:19:58;;;;;;;8.02;5.60;;;27.10;87.30;;;;;;5024401;28;19921;-66
2023/06/24 11:22:24;;;;;;;8.27;5.70;;;27.20;91.50;;;;;;5003023;28;20046;-64
2023/06/24 11:24:51;;;;;;;8.82;5.45;;;27.40;90.50;;;;;;5009925;28;20045;-63
2023/06/24 11:27:23;;;;;;;7.40;5.40;;;27.60;90.30;;;;;;5023578;28;20042;-65
2023/06/24 11:29:51;;;;;;;8.10;5.10;;;27.60;90.10;;;;;;5015657;28;20135;-65
2023/06/24 11:32:17;;;;;;;8.73;4.93;;;27.80;89.50;;;;;;5024422;28;20096;-66
2023/06/24 11:34:43;;;;;;;6.05;4.50;;;28.00;89.00;;;;;;5007949;28;20034;-63
2023/06/24 11:37:10;;;;;;;6.90;5.00;;;28.00;89.00;;;;;;5012384;28;20033;-64
2023/06/24 11:39:36;;;;;;;8.63;5.00;;;28.10;87.80;;;;;;5012057;28;20025;-66
2023/06/24 11:42:01;;;;;;;8.95;5.68;;;27.90;86.90;;;;;;5013858;28;20067;-65
2023/06/24 11:44:27;;;;;;;8.88;5.38;;;28.00;87.50;;;;;;5020018;28;20117;-64
2023/06/24 11:46:53;;;;;;;7.13;4.95;;;28.20;88.10;;;;;;5021219;28;20563;-66
2023/06/24 11:49:19;;;;;;;8.35;5.10;;;28.20;86.60;;;;;;5013537;28;20045;-66
2023/06/24 11:51:50;;;;;;;7.60;5.47;;;28.40;84.80;;;;;;5014017;28;20112;-66
2023/06/24 11:54:17;;;;;;;9.98;5.10;;;28.20;83.60;;;;;;5010009;28;20107;-65
2023/06/24 11:56:44;;;;;;;8.30;5.40;;;28.10;84.70;;;;;;5008253;28;20086;-66
2023/06/24 11:59:21;;;;;;;8.02;5.45;;;27.80;84.70;;;;;;5007412;28;20042;-64
2023/06/24 12:01:59;;;;;;;8.25;5.80;;;28.10;85.60;;;;;;5001824;28;20048;-66
2023/06/24 12:04:29;;;;;;;6.05;4.95;;;28.40;82.40;;;;;;5002099;28;20133;-65
2023/06/24 12:06:55;;;;;;;6.28;4.80;;;28.50;83.40;;;;;;4992425;28;20042;-65
2023/06/24 12:09:20;;;;;;;8.13;5.70;;;29.00;85.60;;;;;;4998982;28;20050;-66
2023/06/24 12:11:46;;;;;;;8.77;4.95;;;29.30;82.40;;;;;;5004127;28;20069;-62
2023/06/24 12:14:12;;;;;;;6.57;4.60;;;29.40;83.40;;;;;;5005368;28;20132;-66
2023/06/24 12:16:39;;;;;;;6.50;4.70;;;29.30;81.40;;;;;;5009944;28;20052;-66
2023/06/24 12:19:05;;;;;;;9.32;4.80;;;29.20;80.60;;;;;;4990576;28;20038;-66
2023/06/24 12:21:31;;;;;;;6.25;4.60;;;29.20;81.30;;;;;;4990824;28;20042;-66
2023/06/24 12:23:57;;;;;;;7.53;4.90;;;29.30;79.50;;;;;;5003762;28;20049;-66
2023/06/24 12:26:23;;;;;;;5.82;4.93;;;29.20;78.70;;;;;;5002979;28;20050;-65
2023/06/24 12:28:48;;;;;;;7.18;4.57;;;29.00;78.80;;;;;;4991837;28;20141;-66
2023/06/24 12:31:14;;;;;;;6.18;4.53;;;28.70;79.60;;;;;;4995721;28;20507;-64
2023/06/24 12:33:39;;;;;;;7.35;5.00;;;28.50;79.90;;;;;;5003280;28;20038;-65
2023/06/24 12:36:05;;;;;;;5.70;4.60;;;28.30;79.60;;;;;;5004700;28;20034;-64
2023/06/24 12:38:31;;;;;;;6.97;4.93;;;28.00;80.50;;;;;;5005176;28;20063;-64